sensor_id;sensor_type;location;lat;lon;timestamp;temperature;humidity
21271;DHT22;10795;50.796;3.860;2024-02-21T00:01:22;9.20;99.90
21271;DHT22;10795;50.796;3.860;2024-02-21T00:03:48;9.30;99.90
21271;DHT22;10795;50.796;3.860;2024-02-21T00:06:14;9.20;99.90
21271;DHT22;10795;50.796;3.860;2024-02-21T00:08:44;9.20;99.90
21271;DHT22;10795;50.796;3.860;2024-02-21T00:11:12;9.40;99.90
21271;DHT22;10795;50.796;3.860;2024-02-21T00:13:40;9.40;99.90
21271;DHT22;10795;50.796;3.860;2024-02-21T00:16:06;9.40;99.90
21271;DHT22;10795;50.796;3.860;2024-02-21T00:18:32;9.10;99.90
21271;DHT22;10795;50.796;3.860;2024-02-21T00:20:57;8.90;99.90
21271;DHT22;10795;50.796;3.860;2024-02-21T00:23:28;8.80;99.90
21271;DHT22;10795;50.796;3.860;2024-02-21T00:25:55;8.70;99.90
21271;DHT22;10795;50.796;3.860;2024-02-21T00:28:20;8.70;99.90
21271;DHT22;10795;50.796;3.860;2024-02-21T00:30:49;8.70;99.90
21271;DHT22;10795;50.796;3.860;2024-02-21T00:33:17;8.70;99.90
21271;DHT22;10795;50.796;3.860;2024-02-21T00:35:42;9.00;99.90
21271;DHT22;10795;50.796;3.860;2024-02-21T00:38:08;8.90;99.90
21271;DHT22;10795;50.796;3.860;2024-02-21T00:40:35;8.90;99.90
21271;DHT22;10795;50.796;3.860;2024-02-21T00:43:00;8.90;99.90
21271;DHT22;10795;50.796;3.860;2024-02-21T00:45:26;8.70;99.90
21271;DHT22;10795;50.796;3.860;2024-02-21T00:47:54;8.70;99.90
21271;DHT22;10795;50.796;3.860;2024-02-21T00:50:23;8.80;99.90
21271;DHT22;10795;50.796;3.860;2024-02-21T00:52:48;9.10;99.90
21271;DHT22;10795;50.796;3.860;2024-02-21T00:55:16;9.00;99.90
21271;DHT22;10795;50.796;3.860;2024-02-21T00:57:44;9.00;99.90
21271;DHT22;10795;50.796;3.860;2024-02-21T01:00:13;8.80;99.90
21271;DHT22;10795;50.796;3.860;2024-02-21T01:02:39;8.80;99.90
21271;DHT22;10795;50.796;3.860;2024-02-21T01:05:05;8.60;99.90
21271;DHT22;10795;50.796;3.860;2024-02-21T01:07:33;8.60;99.90
21271;DHT22;10795;50.796;3.860;2024-02-21T01:10:01;8.60;99.90
21271;DHT22;10795;50.796;3.860;2024-02-21T01:12:29;8.60;99.90
21271;DHT22;10795;50.796;3.860;2024-02-21T01:14:57;8.90;99.90
21271;DHT22;10795;50.796;3.860;2024-02-21T01:17:23;8.80;99.90
21271;DHT22;10795;50.796;3.860;2024-02-21T01:19:48;8.70;99.90
21271;DHT22;10795;50.796;3.860;2024-02-21T01:22:14;8.60;99.90
21271;DHT22;10795;50.796;3.860;2024-02-21T01:24:43;8.50;99.90
21271;DHT22;10795;50.796;3.860;2024-02-21T01:27:09;8.40;99.90
21271;DHT22;10795;50.796;3.860;2024-02-21T01:29:37;8.30;99.90
21271;DHT22;10795;50.796;3.860;2024-02-21T01:32:03;8.20;99.90
21271;DHT22;10795;50.796;3.860;2024-02-21T01:34:32;8.20;99.90
21271;DHT22;10795;50.796;3.860;2024-02-21T01:36:57;8.20;99.90
21271;DHT22;10795;50.796;3.860;2024-02-21T01:39:24;8.40;99.90
21271;DHT22;10795;50.796;3.860;2024-02-21T01:41:52;8.40;99.90
21271;DHT22;10795;50.796;3.860;2024-02-21T01:44:18;8.30;99.90
21271;DHT22;10795;50.796;3.860;2024-02-21T01:46:44;8.30;99.90
21271;DHT22;10795;50.796;3.860;2024-02-21T01:49:14;8.50;99.90
21271;DHT22;10795;50.796;3.860;2024-02-21T01:51:40;8.50;99.90
21271;DHT22;10795;50.796;3.860;2024-02-21T01:54:06;8.60;99.90
21271;DHT22;10795;50.796;3.860;2024-02-21T01:56:32;8.60;99.90
21271;DHT22;10795;50.796;3.860;2024-02-21T01:58:58;8.40;99.90
21271;DHT22;10795;50.796;3.860;2024-02-21T02:01:27;8.30;99.90
21271;DHT22;10795;50.796;3.860;2024-02-21T02:03:53;8.40;99.90
21271;DHT22;10795;50.796;3.860;2024-02-21T02:06:20;8.40;99.90
21271;DHT22;10795;50.796;3.860;2024-02-21T02:08:46;8.30;99.90
21271;DHT22;10795;50.796;3.860;2024-02-21T02:11:19;8.40;99.90
21271;DHT22;10795;50.796;3.860;2024-02-21T02:13:45;8.40;99.90
21271;DHT22;10795;50.796;3.860;2024-02-21T02:16:11;8.30;99.90
21271;DHT22;10795;50.796;3.860;2024-02-21T02:18:39;8.30;99.90
21271;DHT22;10795;50.796;3.860;2024-02-21T02:21:14;8.40;99.90
21271;DHT22;10795;50.796;3.860;2024-02-21T02:23:46;8.40;99.90
21271;DHT22;10795;50.796;3.860;2024-02-21T02:26:12;8.20;99.90
21271;DHT22;10795;50.796;3.860;2024-02-21T02:28:38;8.20;99.90
21271;DHT22;10795;50.796;3.860;2024-02-21T02:31:04;8.20;99.90
21271;DHT22;10795;50.796;3.860;2024-02-21T02:33:31;8.20;99.90
21271;DHT22;10795;50.796;3.860;2024-02-21T02:35:56;8.20;99.90
21271;DHT22;10795;50.796;3.860;2024-02-21T02:38:24;8.10;99.90
21271;DHT22;10795;50.796;3.860;2024-02-21T02:40:50;8.10;99.90
21271;DHT22;10795;50.796;3.860;2024-02-21T02:43:15;8.10;99.90
21271;DHT22;10795;50.796;3.860;2024-02-21T02:45:42;8.20;99.90
21271;DHT22;10795;50.796;3.860;2024-02-21T02:48:07;8.40;99.90
21271;DHT22;10795;50.796;3.860;2024-02-21T02:50:35;8.60;99.90
21271;DHT22;10795;50.796;3.860;2024-02-21T02:53:01;8.50;99.90
21271;DHT22;10795;50.796;3.860;2024-02-21T02:55:27;8.50;99.90
21271;DHT22;10795;50.796;3.860;2024-02-21T02:57:53;8.40;99.90
21271;DHT22;10795;50.796;3.860;2024-02-21T03:00:19;8.40;99.90
21271;DHT22;10795;50.796;3.860;2024-02-21T03:02:49;8.40;99.90
21271;DHT22;10795;50.796;3.860;2024-02-21T03:05:19;8.40;99.90
21271;DHT22;10795;50.796;3.860;2024-02-21T03:07:48;8.40;99.90
21271;DHT22;10795;50.796;3.860;2024-02-21T03:10:17;8.40;99.90
21271;DHT22;10795;50.796;3.860;2024-02-21T03:12:47;8.50;99.90
21271;DHT22;10795;50.796;3.860;2024-02-21T03:15:14;8.60;99.90
21271;DHT22;10795;50.796;3.860;2024-02-21T03:17:41;8.50;99.90
21271;DHT22;10795;50.796;3.860;2024-02-21T03:20:10;8.60;99.90
21271;DHT22;10795;50.796;3.860;2024-02-21T03:22:40;8.60;99.90
21271;DHT22;10795;50.796;3.860;2024-02-21T03:25:11;8.60;99.90
21271;DHT22;10795;50.796;3.860;2024-02-21T03:27:38;8.60;99.90
21271;DHT22;10795;50.796;3.860;2024-02-21T03:30:07;8.50;99.90
21271;DHT22;10795;50.796;3.860;2024-02-21T03:32:35;8.60;99.90
21271;DHT22;10795;50.796;3.860;2024-02-21T03:35:03;8.60;99.90
21271;DHT22;10795;50.796;3.860;2024-02-21T03:37:29;8.60;99.90
21271;DHT22;10795;50.796;3.860;2024-02-21T03:39:55;8.60;99.90
21271;DHT22;10795;50.796;3.860;2024-02-21T03:42:21;8.40;99.90
21271;DHT22;10795;50.796;3.860;2024-02-21T03:44:46;8.40;99.90
21271;DHT22;10795;50.796;3.860;2024-02-21T03:47:17;8.40;99.90
21271;DHT22;10795;50.796;3.860;2024-02-21T03:49:45;8.30;99.90
21271;DHT22;10795;50.796;3.860;2024-02-21T03:52:11;8.30;99.90
21271;DHT22;10795;50.796;3.860;2024-02-21T03:54:36;8.40;99.90
21271;DHT22;10795;50.796;3.860;2024-02-21T03:57:05;8.50;99.90
21271;DHT22;10795;50.796;3.860;2024-02-21T03:59:34;8.40;99.90
21271;DHT22;10795;50.796;3.860;2024-02-21T04:02:01;8.40;99.90
21271;DHT22;10795;50.796;3.860;2024-02-21T04:04:31;8.40;99.90
21271;DHT22;10795;50.796;3.860;2024-02-21T04:06:57;8.50;99.90
21271;DHT22;10795;50.796;3.860;2024-02-21T04:09:23;8.50;99.90
21271;DHT22;10795;50.796;3.860;2024-02-21T04:11:52;8.50;99.90
21271;DHT22;10795;50.796;3.860;2024-02-21T04:14:17;8.50;99.90
21271;DHT22;10795;50.796;3.860;2024-02-21T04:16:46;8.50;99.90
21271;DHT22;10795;50.796;3.860;2024-02-21T04:19:14;8.50;99.90
21271;DHT22;10795;50.796;3.860;2024-02-21T04:21:45;8.40;99.90
21271;DHT22;10795;50.796;3.860;2024-02-21T04:24:16;8.50;99.90
21271;DHT22;10795;50.796;3.860;2024-02-21T04:26:44;8.60;99.90
21271;DHT22;10795;50.796;3.860;2024-02-21T04:29:10;8.60;99.90
21271;DHT22;10795;50.796;3.860;2024-02-21T04:31:40;8.60;99.90
21271;DHT22;10795;50.796;3.860;2024-02-21T04:34:06;8.50;99.90
21271;DHT22;10795;50.796;3.860;2024-02-21T04:36:32;8.50;99.90
21271;DHT22;10795;50.796;3.860;2024-02-21T04:39:01;8.60;99.90
21271;DHT22;10795;50.796;3.860;2024-02-21T04:41:26;8.70;99.90
21271;DHT22;10795;50.796;3.860;2024-02-21T04:43:52;8.60;99.90
21271;DHT22;10795;50.796;3.860;2024-02-21T04:46:20;8.60;99.90
21271;DHT22;10795;50.796;3.860;2024-02-21T04:48:48;8.60;99.90
21271;DHT22;10795;50.796;3.860;2024-02-21T04:51:16;8.50;99.90
21271;DHT22;10795;50.796;3.860;2024-02-21T04:53:42;8.50;99.90
21271;DHT22;10795;50.796;3.860;2024-02-21T04:56:08;8.70;99.90
21271;DHT22;10795;50.796;3.860;2024-02-21T04:58:38;8.90;99.90
21271;DHT22;10795;50.796;3.860;2024-02-21T05:01:07;8.80;99.90
21271;DHT22;10795;50.796;3.860;2024-02-21T05:03:33;8.80;99.90
21271;DHT22;10795;50.796;3.860;2024-02-21T05:06:01;8.80;99.90
21271;DHT22;10795;50.796;3.860;2024-02-21T05:08:27;8.80;99.90
21271;DHT22;10795;50.796;3.860;2024-02-21T05:10:53;8.80;99.90
21271;DHT22;10795;50.796;3.860;2024-02-21T05:13:19;8.90;99.90
21271;DHT22;10795;50.796;3.860;2024-02-21T05:15:45;8.70;99.90
21271;DHT22;10795;50.796;3.860;2024-02-21T05:18:13;8.60;99.90
21271;DHT22;10795;50.796;3.860;2024-02-21T05:20:41;8.60;99.90
21271;DHT22;10795;50.796;3.860;2024-02-21T05:23:07;8.60;99.90
21271;DHT22;10795;50.796;3.860;2024-02-21T05:25:33;8.60;99.90
21271;DHT22;10795;50.796;3.860;2024-02-21T05:27:59;8.50;99.90
21271;DHT22;10795;50.796;3.860;2024-02-21T05:30:28;8.60;99.90
21271;DHT22;10795;50.796;3.860;2024-02-21T05:32:57;8.60;99.90
21271;DHT22;10795;50.796;3.860;2024-02-21T05:35:29;8.60;99.90
21271;DHT22;10795;50.796;3.860;2024-02-21T05:37:55;8.60;99.90
21271;DHT22;10795;50.796;3.860;2024-02-21T05:40:21;8.60;99.90
21271;DHT22;10795;50.796;3.860;2024-02-21T05:42:46;8.60;99.90
21271;DHT22;10795;50.796;3.860;2024-02-21T05:45:12;8.70;99.90
21271;DHT22;10795;50.796;3.860;2024-02-21T05:47:41;8.70;99.90
21271;DHT22;10795;50.796;3.860;2024-02-21T05:50:07;8.60;99.90
21271;DHT22;10795;50.796;3.860;2024-02-21T05:52:34;8.60;99.90
21271;DHT22;10795;50.796;3.860;2024-02-21T05:55:00;8.80;99.90
21271;DHT22;10795;50.796;3.860;2024-02-21T05:57:26;8.80;99.90
21271;DHT22;10795;50.796;3.860;2024-02-21T05:59:54;8.70;99.90
21271;DHT22;10795;50.796;3.860;2024-02-21T06:02:19;8.70;99.90
21271;DHT22;10795;50.796;3.860;2024-02-21T06:04:47;8.70;99.90
21271;DHT22;10795;50.796;3.860;2024-02-21T06:07:13;8.70;99.90
21271;DHT22;10795;50.796;3.860;2024-02-21T06:09:39;8.70;99.90
21271;DHT22;10795;50.796;3.860;2024-02-21T06:12:05;8.70;99.90
21271;DHT22;10795;50.796;3.860;2024-02-21T06:14:33;8.80;99.90
21271;DHT22;10795;50.796;3.860;2024-02-21T06:16:59;8.70;99.90
21271;DHT22;10795;50.796;3.860;2024-02-21T06:19:24;8.60;99.90
21271;DHT22;10795;50.796;3.860;2024-02-21T06:21:50;8.70;99.90
21271;DHT22;10795;50.796;3.860;2024-02-21T06:24:16;8.70;99.90
21271;DHT22;10795;50.796;3.860;2024-02-21T06:26:42;8.60;99.90
21271;DHT22;10795;50.796;3.860;2024-02-21T06:29:12;8.80;99.90
21271;DHT22;10795;50.796;3.860;2024-02-21T06:31:40;8.70;99.90
21271;DHT22;10795;50.796;3.860;2024-02-21T06:34:10;8.80;99.90
21271;DHT22;10795;50.796;3.860;2024-02-21T06:36:36;8.80;99.90
21271;DHT22;10795;50.796;3.860;2024-02-21T06:39:07;8.80;99.90
21271;DHT22;10795;50.796;3.860;2024-02-21T06:41:33;8.60;99.90
21271;DHT22;10795;50.796;3.860;2024-02-21T06:44:02;8.60;99.90
21271;DHT22;10795;50.796;3.860;2024-02-21T06:46:29;8.70;99.90
21271;DHT22;10795;50.796;3.860;2024-02-21T06:48:57;8.80;99.90
21271;DHT22;10795;50.796;3.860;2024-02-21T06:51:26;8.70;99.90
21271;DHT22;10795;50.796;3.860;2024-02-21T06:53:57;8.70;99.90
21271;DHT22;10795;50.796;3.860;2024-02-21T06:56:28;8.70;99.90
21271;DHT22;10795;50.796;3.860;2024-02-21T06:58:57;8.60;99.90
21271;DHT22;10795;50.796;3.860;2024-02-21T07:01:23;8.70;99.90
21271;DHT22;10795;50.796;3.860;2024-02-21T07:03:50;8.70;99.90
21271;DHT22;10795;50.796;3.860;2024-02-21T07:06:15;8.70;99.90
21271;DHT22;10795;50.796;3.860;2024-02-21T07:08:41;8.70;99.90
21271;DHT22;10795;50.796;3.860;2024-02-21T07:11:07;8.70;99.90
21271;DHT22;10795;50.796;3.860;2024-02-21T07:13:33;8.70;99.90
21271;DHT22;10795;50.796;3.860;2024-02-21T07:16:01;8.70;99.90
21271;DHT22;10795;50.796;3.860;2024-02-21T07:18:27;8.60;99.90
21271;DHT22;10795;50.796;3.860;2024-02-21T07:20:52;8.60;99.90
21271;DHT22;10795;50.796;3.860;2024-02-21T07:23:21;8.50;99.90
21271;DHT22;10795;50.796;3.860;2024-02-21T07:25:49;8.50;99.90
21271;DHT22;10795;50.796;3.860;2024-02-21T07:28:15;8.40;99.90
21271;DHT22;10795;50.796;3.860;2024-02-21T07:30:42;8.50;99.90
21271;DHT22;10795;50.796;3.860;2024-02-21T07:33:07;8.50;99.90
21271;DHT22;10795;50.796;3.860;2024-02-21T07:35:36;8.50;99.90
21271;DHT22;10795;50.796;3.860;2024-02-21T07:38:06;8.60;99.90
21271;DHT22;10795;50.796;3.860;2024-02-21T07:40:34;8.70;99.90
21271;DHT22;10795;50.796;3.860;2024-02-21T07:43:00;8.70;99.90
21271;DHT22;10795;50.796;3.860;2024-02-21T07:45:26;8.80;99.90
21271;DHT22;10795;50.796;3.860;2024-02-21T07:47:52;8.80;99.90
21271;DHT22;10795;50.796;3.860;2024-02-21T07:50:17;8.90;99.90
21271;DHT22;10795;50.796;3.860;2024-02-21T07:52:43;8.70;99.90
21271;DHT22;10795;50.796;3.860;2024-02-21T07:55:11;8.60;99.90
21271;DHT22;10795;50.796;3.860;2024-02-21T07:57:37;8.60;99.90
21271;DHT22;10795;50.796;3.860;2024-02-21T08:00:03;8.70;99.90
21271;DHT22;10795;50.796;3.860;2024-02-21T08:02:40;8.80;99.90
21271;DHT22;10795;50.796;3.860;2024-02-21T08:05:12;8.80;99.90
21271;DHT22;10795;50.796;3.860;2024-02-21T08:07:43;8.80;99.90
21271;DHT22;10795;50.796;3.860;2024-02-21T08:10:08;8.80;99.90
21271;DHT22;10795;50.796;3.860;2024-02-21T08:12:36;8.80;99.90
21271;DHT22;10795;50.796;3.860;2024-02-21T08:15:03;8.80;99.90
21271;DHT22;10795;50.796;3.860;2024-02-21T08:17:33;8.80;99.90
21271;DHT22;10795;50.796;3.860;2024-02-21T08:19:59;9.00;99.90
21271;DHT22;10795;50.796;3.860;2024-02-21T08:22:25;9.00;99.90
21271;DHT22;10795;50.796;3.860;2024-02-21T08:24:51;8.90;99.90
21271;DHT22;10795;50.796;3.860;2024-02-21T08:27:21;8.90;99.90
21271;DHT22;10795;50.796;3.860;2024-02-21T08:29:47;8.90;99.90
21271;DHT22;10795;50.796;3.860;2024-02-21T08:32:12;8.80;99.90
21271;DHT22;10795;50.796;3.860;2024-02-21T08:34:38;8.70;99.90
21271;DHT22;10795;50.796;3.860;2024-02-21T08:37:04;8.90;99.90
21271;DHT22;10795;50.796;3.860;2024-02-21T08:39:30;8.90;99.90
21271;DHT22;10795;50.796;3.860;2024-02-21T08:41:56;8.90;99.90
21271;DHT22;10795;50.796;3.860;2024-02-21T08:44:24;8.80;99.90
21271;DHT22;10795;50.796;3.860;2024-02-21T08:46:54;8.80;99.90
21271;DHT22;10795;50.796;3.860;2024-02-21T08:49:20;8.70;99.90
21271;DHT22;10795;50.796;3.860;2024-02-21T08:51:46;8.80;99.90
21271;DHT22;10795;50.796;3.860;2024-02-21T08:54:14;8.90;99.90
21271;DHT22;10795;50.796;3.860;2024-02-21T08:56:40;8.80;99.90
21271;DHT22;10795;50.796;3.860;2024-02-21T08:59:08;8.90;99.90
21271;DHT22;10795;50.796;3.860;2024-02-21T09:01:34;9.00;99.90
21271;DHT22;10795;50.796;3.860;2024-02-21T09:04:02;8.90;99.90
21271;DHT22;10795;50.796;3.860;2024-02-21T09:06:28;9.00;99.90
21271;DHT22;10795;50.796;3.860;2024-02-21T09:08:56;9.10;99.90
21271;DHT22;10795;50.796;3.860;2024-02-21T09:11:25;9.10;99.90
21271;DHT22;10795;50.796;3.860;2024-02-21T09:13:55;9.20;99.90
21271;DHT22;10795;50.796;3.860;2024-02-21T09:16:24;9.00;99.90
21271;DHT22;10795;50.796;3.860;2024-02-21T09:18:56;8.90;99.90
21271;DHT22;10795;50.796;3.860;2024-02-21T09:21:23;9.10;99.90
21271;DHT22;10795;50.796;3.860;2024-02-21T09:23:48;9.10;99.90
21271;DHT22;10795;50.796;3.860;2024-02-21T09:26:17;9.20;99.90
21271;DHT22;10795;50.796;3.860;2024-02-21T09:28:45;9.20;99.90
21271;DHT22;10795;50.796;3.860;2024-02-21T09:31:13;9.30;99.90
21271;DHT22;10795;50.796;3.860;2024-02-21T09:33:39;9.30;99.90
21271;DHT22;10795;50.796;3.860;2024-02-21T09:36:05;9.30;99.90
21271;DHT22;10795;50.796;3.860;2024-02-21T09:38:31;9.30;99.90
21271;DHT22;10795;50.796;3.860;2024-02-21T09:41:06;9.30;99.90
21271;DHT22;10795;50.796;3.860;2024-02-21T09:43:36;9.40;99.90
21271;DHT22;10795;50.796;3.860;2024-02-21T09:46:03;9.40;99.90
21271;DHT22;10795;50.796;3.860;2024-02-21T09:51:25;9.50;99.90
21271;DHT22;10795;50.796;3.860;2024-02-21T09:53:53;9.50;99.90
21271;DHT22;10795;50.796;3.860;2024-02-21T09:56:19;9.40;99.90
21271;DHT22;10795;50.796;3.860;2024-02-21T09:58:47;9.50;99.90
21271;DHT22;10795;50.796;3.860;2024-02-21T10:01:12;9.50;99.90
21271;DHT22;10795;50.796;3.860;2024-02-21T10:03:38;9.60;99.90
21271;DHT22;10795;50.796;3.860;2024-02-21T10:06:05;9.50;99.90
21271;DHT22;10795;50.796;3.860;2024-02-21T10:08:33;9.60;99.90
21271;DHT22;10795;50.796;3.860;2024-02-21T10:11:01;9.50;99.90
21271;DHT22;10795;50.796;3.860;2024-02-21T10:13:29;9.40;99.90
21271;DHT22;10795;50.796;3.860;2024-02-21T10:16:02;9.40;99.90
21271;DHT22;10795;50.796;3.860;2024-02-21T10:18:29;9.50;99.90
21271;DHT22;10795;50.796;3.860;2024-02-21T10:21:05;9.50;99.90
21271;DHT22;10795;50.796;3.860;2024-02-21T10:23:45;9.50;99.90
21271;DHT22;10795;50.796;3.860;2024-02-21T10:26:14;9.50;99.90
21271;DHT22;10795;50.796;3.860;2024-02-21T10:28:40;9.50;99.90
21271;DHT22;10795;50.796;3.860;2024-02-21T10:31:27;9.60;99.90
21271;DHT22;10795;50.796;3.860;2024-02-21T10:34:01;9.60;99.90
21271;DHT22;10795;50.796;3.860;2024-02-21T10:36:31;9.50;99.90
21271;DHT22;10795;50.796;3.860;2024-02-21T10:38:57;9.50;99.90
21271;DHT22;10795;50.796;3.860;2024-02-21T10:41:23;9.50;99.90
21271;DHT22;10795;50.796;3.860;2024-02-21T10:43:51;9.60;99.90
21271;DHT22;10795;50.796;3.860;2024-02-21T10:46:20;9.60;99.90
21271;DHT22;10795;50.796;3.860;2024-02-21T10:48:47;9.60;99.90
21271;DHT22;10795;50.796;3.860;2024-02-21T10:51:20;9.50;99.90
21271;DHT22;10795;50.796;3.860;2024-02-21T10:56:41;9.50;99.90
21271;DHT22;10795;50.796;3.860;2024-02-21T10:59:08;9.60;99.90
21271;DHT22;10795;50.796;3.860;2024-02-21T11:01:36;9.70;99.90
21271;DHT22;10795;50.796;3.860;2024-02-21T11:04:05;9.60;99.90
21271;DHT22;10795;50.796;3.860;2024-02-21T11:06:32;9.60;99.90
21271;DHT22;10795;50.796;3.860;2024-02-21T11:09:03;9.60;99.90
21271;DHT22;10795;50.796;3.860;2024-02-21T11:11:38;9.50;99.90
21271;DHT22;10795;50.796;3.860;2024-02-21T11:14:19;9.50;99.90
21271;DHT22;10795;50.796;3.860;2024-02-21T11:16:45;9.50;99.90
21271;DHT22;10795;50.796;3.860;2024-02-21T11:21:50;9.50;99.90
21271;DHT22;10795;50.796;3.860;2024-02-21T11:24:31;9.50;99.90
21271;DHT22;10795;50.796;3.860;2024-02-21T11:27:12;9.50;99.90
21271;DHT22;10795;50.796;3.860;2024-02-21T11:32:11;9.50;99.90
21271;DHT22;10795;50.796;3.860;2024-02-21T11:34:40;9.70;99.90
21271;DHT22;10795;50.796;3.860;2024-02-21T11:37:15;9.80;99.90
21271;DHT22;10795;50.796;3.860;2024-02-21T11:39:43;9.70;99.90
21271;DHT22;10795;50.796;3.860;2024-02-21T11:42:11;9.70;99.90
21271;DHT22;10795;50.796;3.860;2024-02-21T11:44:38;9.60;99.90
21271;DHT22;10795;50.796;3.860;2024-02-21T11:47:09;9.60;99.90
21271;DHT22;10795;50.796;3.860;2024-02-21T11:49:42;9.60;99.90
21271;DHT22;10795;50.796;3.860;2024-02-21T11:52:13;9.70;99.90
21271;DHT22;10795;50.796;3.860;2024-02-21T11:54:44;9.60;99.90
21271;DHT22;10795;50.796;3.860;2024-02-21T11:57:10;9.60;99.90
21271;DHT22;10795;50.796;3.860;2024-02-21T11:59:40;9.60;99.90
21271;DHT22;10795;50.796;3.860;2024-02-21T12:02:08;9.70;99.90
21271;DHT22;10795;50.796;3.860;2024-02-21T12:04:38;9.60;99.90
21271;DHT22;10795;50.796;3.860;2024-02-21T12:07:06;9.70;99.90
21271;DHT22;10795;50.796;3.860;2024-02-21T12:09:34;9.70;99.90
21271;DHT22;10795;50.796;3.860;2024-02-21T12:12:03;9.60;99.90
21271;DHT22;10795;50.796;3.860;2024-02-21T12:14:31;9.60;99.90
21271;DHT22;10795;50.796;3.860;2024-02-21T12:16:58;9.70;99.90
21271;DHT22;10795;50.796;3.860;2024-02-21T12:19:29;9.90;99.90
21271;DHT22;10795;50.796;3.860;2024-02-21T12:21:59;9.90;99.90
21271;DHT22;10795;50.796;3.860;2024-02-21T12:24:26;9.90;99.90
21271;DHT22;10795;50.796;3.860;2024-02-21T12:26:55;10.10;99.90
21271;DHT22;10795;50.796;3.860;2024-02-21T12:29:22;10.20;99.90
21271;DHT22;10795;50.796;3.860;2024-02-21T12:31:50;10.10;99.90
21271;DHT22;10795;50.796;3.860;2024-02-21T12:34:18;10.20;99.90
21271;DHT22;10795;50.796;3.860;2024-02-21T12:36:45;10.20;99.90
21271;DHT22;10795;50.796;3.860;2024-02-21T12:39:13;10.10;99.90
21271;DHT22;10795;50.796;3.860;2024-02-21T12:41:39;10.20;99.90
21271;DHT22;10795;50.796;3.860;2024-02-21T12:44:09;10.20;99.90
21271;DHT22;10795;50.796;3.860;2024-02-21T12:46:37;10.30;99.90
21271;DHT22;10795;50.796;3.860;2024-02-21T12:49:03;10.50;99.90
21271;DHT22;10795;50.796;3.860;2024-02-21T12:51:33;10.50;99.90
21271;DHT22;10795;50.796;3.860;2024-02-21T12:53:59;10.40;99.90
21271;DHT22;10795;50.796;3.860;2024-02-21T12:56:25;10.50;99.90
21271;DHT22;10795;50.796;3.860;2024-02-21T12:58:55;10.40;99.90
21271;DHT22;10795;50.796;3.860;2024-02-21T13:01:24;10.30;99.90
21271;DHT22;10795;50.796;3.860;2024-02-21T13:03:50;10.30;99.90
21271;DHT22;10795;50.796;3.860;2024-02-21T13:06:21;10.40;99.90
21271;DHT22;10795;50.796;3.860;2024-02-21T13:08:47;10.40;99.90
21271;DHT22;10795;50.796;3.860;2024-02-21T13:11:13;10.40;99.90
21271;DHT22;10795;50.796;3.860;2024-02-21T13:13:39;10.50;99.90
21271;DHT22;10795;50.796;3.860;2024-02-21T13:16:07;10.50;99.90
21271;DHT22;10795;50.796;3.860;2024-02-21T13:18:38;10.40;99.90
21271;DHT22;10795;50.796;3.860;2024-02-21T13:21:05;10.30;99.90
21271;DHT22;10795;50.796;3.860;2024-02-21T13:23:31;10.30;99.90
21271;DHT22;10795;50.796;3.860;2024-02-21T13:25:57;10.40;99.90
21271;DHT22;10795;50.796;3.860;2024-02-21T13:28:23;10.20;99.90
21271;DHT22;10795;50.796;3.860;2024-02-21T13:30:49;10.30;99.90
21271;DHT22;10795;50.796;3.860;2024-02-21T13:33:14;10.30;99.90
21271;DHT22;10795;50.796;3.860;2024-02-21T13:35:40;10.20;99.90
21271;DHT22;10795;50.796;3.860;2024-02-21T13:38:06;10.10;99.90
21271;DHT22;10795;50.796;3.860;2024-02-21T13:40:32;10.00;99.90
21271;DHT22;10795;50.796;3.860;2024-02-21T13:42:58;10.00;99.90
21271;DHT22;10795;50.796;3.860;2024-02-21T13:45:24;10.00;99.90
21271;DHT22;10795;50.796;3.860;2024-02-21T13:47:52;9.90;99.90
21271;DHT22;10795;50.796;3.860;2024-02-21T13:50:21;10.00;99.90
21271;DHT22;10795;50.796;3.860;2024-02-21T13:52:54;10.00;99.90
21271;DHT22;10795;50.796;3.860;2024-02-21T13:55:22;10.00;99.90
21271;DHT22;10795;50.796;3.860;2024-02-21T13:57:51;9.80;99.90
21271;DHT22;10795;50.796;3.860;2024-02-21T14:00:18;9.80;99.90
21271;DHT22;10795;50.796;3.860;2024-02-21T14:02:44;9.90;99.90
21271;DHT22;10795;50.796;3.860;2024-02-21T14:05:10;9.80;99.90
21271;DHT22;10795;50.796;3.860;2024-02-21T14:07:36;9.70;99.90
21271;DHT22;10795;50.796;3.860;2024-02-21T14:10:02;9.70;99.90
21271;DHT22;10795;50.796;3.860;2024-02-21T14:12:32;9.70;99.90
21271;DHT22;10795;50.796;3.860;2024-02-21T14:15:00;9.70;99.90
21271;DHT22;10795;50.796;3.860;2024-02-21T14:17:26;9.70;99.90
21271;DHT22;10795;50.796;3.860;2024-02-21T14:19:52;9.80;99.90
21271;DHT22;10795;50.796;3.860;2024-02-21T14:22:17;9.80;99.90
21271;DHT22;10795;50.796;3.860;2024-02-21T14:24:43;9.70;99.90
21271;DHT22;10795;50.796;3.860;2024-02-21T14:27:09;9.70;99.90
21271;DHT22;10795;50.796;3.860;2024-02-21T14:29:35;9.70;99.90
21271;DHT22;10795;50.796;3.860;2024-02-21T14:32:03;9.80;99.90
21271;DHT22;10795;50.796;3.860;2024-02-21T14:34:29;9.70;99.90
21271;DHT22;10795;50.796;3.860;2024-02-21T14:36:55;9.60;99.90
21271;DHT22;10795;50.796;3.860;2024-02-21T14:39:20;9.60;99.90
21271;DHT22;10795;50.796;3.860;2024-02-21T14:41:46;9.60;99.90
21271;DHT22;10795;50.796;3.860;2024-02-21T14:44:12;9.60;99.90
21271;DHT22;10795;50.796;3.860;2024-02-21T14:46:42;9.60;99.90
21271;DHT22;10795;50.796;3.860;2024-02-21T14:49:07;9.70;99.90
21271;DHT22;10795;50.796;3.860;2024-02-21T14:51:35;9.60;99.90
21271;DHT22;10795;50.796;3.860;2024-02-21T14:54:04;9.50;99.90
21271;DHT22;10795;50.796;3.860;2024-02-21T14:56:30;9.60;99.90
21271;DHT22;10795;50.796;3.860;2024-02-21T14:58:58;9.60;99.90
21271;DHT22;10795;50.796;3.860;2024-02-21T15:01:24;9.60;99.90
21271;DHT22;10795;50.796;3.860;2024-02-21T15:03:50;9.60;99.90
21271;DHT22;10795;50.796;3.860;2024-02-21T15:06:19;9.50;99.90
21271;DHT22;10795;50.796;3.860;2024-02-21T15:08:46;9.50;99.90
21271;DHT22;10795;50.796;3.860;2024-02-21T15:11:14;9.40;99.90
21271;DHT22;10795;50.796;3.860;2024-02-21T15:13:42;9.50;99.90
21271;DHT22;10795;50.796;3.860;2024-02-21T15:16:11;9.40;99.90
21271;DHT22;10795;50.796;3.860;2024-02-21T15:18:36;9.50;99.90
21271;DHT22;10795;50.796;3.860;2024-02-21T15:21:04;9.50;99.90
21271;DHT22;10795;50.796;3.860;2024-02-21T15:23:32;9.50;99.90
21271;DHT22;10795;50.796;3.860;2024-02-21T15:25:58;9.50;99.90
21271;DHT22;10795;50.796;3.860;2024-02-21T15:28:25;9.60;99.90
21271;DHT22;10795;50.796;3.860;2024-02-21T15:30:56;9.50;99.90
21271;DHT22;10795;50.796;3.860;2024-02-21T15:33:22;9.50;99.90
21271;DHT22;10795;50.796;3.860;2024-02-21T15:35:52;9.60;99.90
21271;DHT22;10795;50.796;3.860;2024-02-21T15:38:19;9.60;99.90
21271;DHT22;10795;50.796;3.860;2024-02-21T15:40:45;9.50;99.90
21271;DHT22;10795;50.796;3.860;2024-02-21T15:43:11;9.60;99.90
21271;DHT22;10795;50.796;3.860;2024-02-21T15:45:39;9.60;99.90
21271;DHT22;10795;50.796;3.860;2024-02-21T15:48:12;9.70;99.90
21271;DHT22;10795;50.796;3.860;2024-02-21T15:50:39;9.60;99.90
21271;DHT22;10795;50.796;3.860;2024-02-21T15:53:07;9.60;99.90
21271;DHT22;10795;50.796;3.860;2024-02-21T15:55:33;9.50;99.90
21271;DHT22;10795;50.796;3.860;2024-02-21T15:57:59;9.40;99.90